Time;durP1;ratioP1;P1;durP2;ratioP2;P2;SDS_P1;SDS_P2;PMS_P1;PMS_P2;Temp;Humidity;BMP_temperature;BMP_pressure;BME280_temperature;BME280_humidity;BME280_pressure;Samples;Min_cycle;Max_cycle;Signal;HPM_P1;HPM_P2
2023/09/18 00:03:32;;;;;;;4.68;3.10;;;;;;;21.93;64.78;99601.19;10427529;28;20496;-59
2023/09/18 00:08:33;;;;;;;12.65;4.05;;;;;;;21.78;65.10;99602.00;10424823;28;20119;-58
2023/09/18 00:13:35;;;;;;;5.93;3.38;;;;;;;21.77;64.98;99599.53;10417833;28;20049;-57
2023/09/18 00:18:36;;;;;;;9.80;4.25;;;;;;;21.67;65.37;99583.06;10424528;28;20767;-57
2023/09/18 00:23:38;;;;;;;7.82;2.67;;;;;;;21.69;65.29;99584.44;10422226;28;20144;-56
2023/09/18 00:28:39;;;;;;;7.22;3.42;;;;;;;21.68;65.17;99580.09;10420009;28;20040;-59
2023/09/18 00:33:40;;;;;;;5.07;3.50;;;;;;;21.67;65.42;99569.41;10422602;28;20514;-60
2023/09/18 00:38:42;;;;;;;7.40;3.17;;;;;;;21.62;65.51;99570.19;10423145;28;20045;-59
2023/09/18 00:43:43;;;;;;;7.32;3.42;;;;;;;21.56;65.39;99563.91;10423035;28;20033;-59
2023/09/18 00:48:46;;;;;;;6.43;3.40;;;;;;;21.56;65.25;99554.84;10420448;28;20053;-60
2023/09/18 00:53:48;;;;;;;8.05;3.78;;;;;;;21.52;65.44;99540.88;10420211;28;20057;-59
2023/09/18 00:58:51;;;;;;;9.68;3.00;;;;;;;21.46;65.57;99539.22;10419073;28;20500;-58
2023/09/18 01:03:53;;;;;;;6.22;3.03;;;;;;;21.37;65.93;99536.16;10425453;28;20381;-59
2023/09/18 01:08:55;;;;;;;6.95;3.30;;;;;;;21.35;65.76;99537.53;10422025;28;20071;-60
2023/09/18 01:14:37;;;;;;;6.60;3.20;;;;;;;21.24;66.02;99533.91;10417312;28;20045;-60
2023/09/18 01:19:39;;;;;;;7.85;2.60;;;;;;;21.26;66.33;99525.47;10404915;28;20041;-59
2023/09/18 01:24:43;;;;;;;7.30;2.70;;;;;;;21.24;66.58;99514.78;10414946;28;20491;-59
2023/09/18 01:29:46;;;;;;;3.88;2.70;;;;;;;21.26;66.60;99509.06;10420302;28;20056;-58
2023/09/18 01:34:51;;;;;;;7.07;2.85;;;;;;;21.21;66.14;99512.59;10422386;28;20050;-59
2023/09/18 01:39:53;;;;;;;5.05;3.03;;;;;;;21.07;66.89;99505.94;10421967;28;20094;-59
2023/09/18 01:44:55;;;;;;;7.78;3.08;;;;;;;21.19;66.50;99512.84;10419105;28;20056;-58
2023/09/18 01:49:56;;;;;;;8.82;3.20;;;;;;;21.09;66.79;99512.81;10413282;28;20091;-56
2023/09/18 01:54:58;;;;;;;7.43;3.13;;;;;;;21.18;66.73;99492.06;10419234;28;20408;-57
2023/09/18 01:59:59;;;;;;;5.10;2.40;;;;;;;21.17;66.48;99509.56;10426350;28;20071;-57
2023/09/18 02:05:02;;;;;;;9.23;3.15;;;;;;;21.10;66.93;99500.78;10418400;28;20045;-57
2023/09/18 02:10:12;;;;;;;6.32;2.70;;;;;;;21.05;67.37;99500.78;10425600;28;20128;-58
2023/09/18 02:15:16;;;;;;;6.75;2.80;;;;;;;21.26;66.63;99501.66;10421267;28;20132;-57
2023/09/18 02:20:18;;;;;;;3.03;1.80;;;;;;;21.34;66.82;99505.78;10417615;28;20153;-57
2023/09/18 02:25:19;;;;;;;4.30;2.22;;;;;;;21.42;66.51;99565.44;10427413;28;20389;-58
2023/09/18 02:30:21;;;;;;;6.10;2.25;;;;;;;21.29;67.15;99617.88;10427782;28;20603;-60
2023/09/18 02:35:22;;;;;;;10.23;3.70;;;;;;;20.45;71.18;99595.66;10419862;28;20057;-59
2023/09/18 02:40:24;;;;;;;12.15;4.90;;;;;;;20.52;71.73;99598.19;10432088;28;20109;-59
2023/09/18 02:45:25;;;;;;;10.60;4.95;;;;;;;20.56;72.13;99563.81;10425927;28;20348;-60
2023/09/18 02:50:27;;;;;;;12.38;6.07;;;;;;;20.57;73.03;99560.00;10428289;28;20424;-61
2023/09/18 02:55:28;;;;;;;7.60;4.97;;;;;;;20.47;73.43;99555.28;10430979;28;20454;-61
2023/09/18 03:00:30;;;;;;;8.85;5.90;;;;;;;20.47;74.01;99538.06;10430014;28;20053;-60
2023/09/18 03:05:44;;;;;;;11.55;5.05;;;;;;;20.52;73.81;99532.66;10424253;28;20701;-59
2023/09/18 03:10:46;;;;;;;10.85;5.20;;;;;;;20.55;74.14;99537.59;10422422;28;20394;-60
2023/09/18 03:15:47;;;;;;;9.27;4.93;;;;;;;20.47;74.34;99516.22;10425644;28;20041;-61
2023/09/18 03:20:48;;;;;;;8.93;5.50;;;;;;;20.48;74.68;99496.03;10425164;28;20068;-60
2023/09/18 03:25:50;;;;;;;9.43;5.70;;;;;;;20.41;74.72;99474.41;10425081;28;20049;-60
2023/09/18 03:30:52;;;;;;;12.23;6.32;;;;;;;20.32;75.30;99465.06;10427330;28;20060;-60
2023/09/18 03:35:54;;;;;;;18.60;6.20;;;;;;;20.17;75.89;99454.88;10416778;28;20049;-59
2023/09/18 03:40:59;;;;;;;10.98;6.07;;;;;;;19.97;76.54;99469.19;10423265;28;20049;-58
2023/09/18 03:46:05;;;;;;;10.73;5.50;;;;;;;20.01;76.33;99471.09;10425116;28;20080;-58
2023/09/18 03:51:08;;;;;;;12.33;5.50;;;;;;;19.95;76.72;99487.72;10420559;28;20122;-58
2023/09/18 03:56:09;;;;;;;13.95;6.38;;;;;;;20.09;76.09;99480.72;10426727;28;20049;-58
2023/09/18 04:01:11;;;;;;;12.02;7.22;;;;;;;20.21;75.82;99484.09;10426197;28;20073;-58
2023/09/18 04:06:12;;;;;;;9.93;6.15;;;;;;;20.24;75.71;99471.00;10422137;28;20053;-59
2023/09/18 04:11:14;;;;;;;10.77;6.00;;;;;;;20.21;75.57;99489.56;10418482;28;20464;-58
2023/09/18 04:16:17;;;;;;;12.18;6.05;;;;;;;20.17;76.24;99493.06;10422045;28;20109;-58
2023/09/18 04:21:18;;;;;;;11.45;6.22;;;;;;;20.17;76.40;99479.44;10423088;28;20052;-58
2023/09/18 04:26:20;;;;;;;13.48;6.88;;;;;;;20.16;76.38;99483.22;10415056;28;20041;-58
2023/09/18 04:31:21;;;;;;;11.68;6.10;;;;;;;20.24;76.20;99492.84;10416735;28;20046;-58
2023/09/18 04:36:23;;;;;;;14.07;6.38;;;;;;;20.33;76.00;99485.81;10422053;28;20045;-58
2023/09/18 04:41:25;;;;;;;9.60;6.32;;;;;;;20.34;76.12;99496.50;10418808;28;20049;-58
2023/09/18 04:46:27;;;;;;;9.75;6.30;;;;;;;20.39;75.98;99473.84;10404383;28;20041;-58
2023/09/18 04:51:28;;;;;;;8.32;5.53;;;;;;;20.42;75.74;99462.41;10419711;28;20049;-58
2023/09/18 04:56:29;;;;;;;16.30;7.03;;;;;;;20.44;76.19;99457.53;10420230;28;20171;-58
2023/09/18 05:01:32;;;;;;;11.45;6.75;;;;;;;20.46;76.02;99469.00;10419395;28;20049;-58
2023/09/18 05:06:33;;;;;;;11.65;7.47;;;;;;;20.43;75.81;99435.94;10421400;28;20045;-59
2023/09/18 05:11:35;;;;;;;12.35;6.28;;;;;;;20.50;75.60;99431.88;10423109;28;20045;-60
2023/09/18 05:16:37;;;;;;;12.07;6.35;;;;;;;20.48;76.22;99406.75;10426897;28;20045;-60
2023/09/18 05:21:38;;;;;;;14.50;5.80;;;;;;;20.55;76.43;99406.50;10419649;28;20046;-61
2023/09/18 05:26:40;;;;;;;7.65;4.70;;;;;;;20.53;76.20;99419.63;10417483;28;20060;-60
2023/09/18 05:31:41;;;;;;;11.43;5.00;;;;;;;20.40;76.97;99435.38;10419362;28;20518;-60
2023/09/18 05:36:43;;;;;;;11.25;5.55;;;;;;;20.48;76.79;99442.25;10420206;28;20500;-60
2023/09/18 05:41:44;;;;;;;11.38;5.72;;;;;;;20.57;76.25;99464.41;10416044;28;20046;-61
2023/09/18 05:46:46;;;;;;;11.07;4.57;;;;;;;20.65;76.44;99477.59;10419478;28;20396;-61
2023/09/18 05:51:48;;;;;;;8.27;4.72;;;;;;;20.70;76.71;99485.84;10421710;28;20160;-62
2023/09/18 05:56:50;;;;;;;8.93;5.65;;;;;;;20.79;76.50;99478.78;10419301;28;20049;-62
2023/09/18 06:01:53;;;;;;;10.57;3.97;;;;;;;20.92;76.20;99482.94;10412279;28;20069;-61
2023/09/18 06:06:56;;;;;;;6.95;3.45;;;;;;;20.93;76.35;99506.47;10420269;28;20057;-62
2023/09/18 06:11:59;;;;;;;12.32;3.78;;;;;;;20.97;76.12;99493.06;10426117;28;20395;-63
2023/09/18 06:17:01;;;;;;;7.93;4.10;;;;;;;21.07;76.35;99484.09;10423760;28;20044;-62
2023/09/18 06:22:03;;;;;;;7.75;3.67;;;;;;;21.08;76.31;99472.91;10427999;28;20072;-61
2023/09/18 06:27:05;;;;;;;10.35;4.68;;;;;;;21.13;75.80;99478.41;10432457;28;20055;-60
2023/09/18 06:32:06;;;;;;;8.82;3.58;;;;;;;21.18;75.85;99480.31;10433953;28;20049;-61
2023/09/18 06:37:10;;;;;;;9.52;3.72;;;;;;;21.20;75.46;99473.47;10426020;28;20104;-61
2023/09/18 06:42:12;;;;;;;8.73;3.42;;;;;;;21.20;75.79;99473.47;10426471;28;20402;-60
2023/09/18 06:47:14;;;;;;;8.80;3.28;;;;;;;21.22;75.77;99484.16;10408964;28;20049;-60
2023/09/18 06:52:16;;;;;;;11.45;3.47;;;;;;;21.23;75.65;99496.75;10423287;28;20135;-60
2023/09/18 06:57:18;;;;;;;11.43;3.20;;;;;;;21.28;75.54;99498.66;10418269;28;20064;-60
2023/09/18 07:02:19;;;;;;;9.52;2.40;;;;;;;21.34;75.50;99503.06;10427401;28;20515;-61
2023/09/18 07:07:25;;;;;;;11.40;3.42;;;;;;;21.31;75.60;99512.63;10427087;28;20463;-61
2023/09/18 07:12:27;;;;;;;8.88;1.85;;;;;;;21.33;75.81;99517.84;10424005;28;20113;-60
2023/09/18 07:17:29;;;;;;;9.23;2.42;;;;;;;21.38;75.64;99526.03;10421798;28;20052;-61
2023/09/18 07:22:31;;;;;;;6.78;2.97;;;;;;;21.48;75.29;99520.63;10424014;28;20107;-60
2023/09/18 07:27:33;;;;;;;9.57;2.85;;;;;;;21.50;75.26;99518.44;10423801;28;20061;-62
2023/09/18 07:32:34;;;;;;;10.35;2.38;;;;;;;21.56;75.11;99531.09;10427356;28;20056;-57
2023/09/18 07:37:39;;;;;;;5.80;1.73;;;;;;;21.64;74.56;99528.88;10429875;28;20037;-58
2023/09/18 07:42:40;;;;;;;8.43;1.98;;;;;;;21.76;74.19;99521.25;10425766;28;20041;-56
2023/09/18 07:47:42;;;;;;;9.32;3.15;;;;;;;21.77;73.89;99520.19;10420878;28;20045;-58
2023/09/18 07:52:43;;;;;;;11.77;2.63;;;;;;;21.86;73.99;99536.88;10426022;28;20048;-58
2023/09/18 07:57:45;;;;;;;7.00;1.73;;;;;;;21.99;73.65;99537.16;10423994;28;20041;-57
2023/09/18 08:02:49;;;;;;;9.43;2.65;;;;;;;22.00;73.41;99538.00;10421507;28;20379;-58
2023/09/18 08:07:51;;;;;;;8.40;1.83;;;;;;;22.15;73.09;99539.94;10428476;28;20053;-58
2023/09/18 08:12:53;;;;;;;5.55;1.77;;;;;;;22.29;73.03;99543.78;10427646;28;20041;-57
2023/09/18 08:17:54;;;;;;;9.48;1.92;;;;;;;22.46;72.50;99564.63;10429090;28;20054;-58
2023/09/18 08:22:56;;;;;;;10.20;2.05;;;;;;;22.62;72.24;99566.25;10428047;28;20523;-58
2023/09/18 08:27:58;;;;;;;11.43;1.75;;;;;;;22.84;71.69;99548.69;10420698;28;20136;-60
2023/09/18 08:33:00;;;;;;;6.90;1.20;;;;;;;23.02;71.46;99556.34;10425079;28;20073;-57
2023/09/18 08:38:02;;;;;;;8.45;1.85;;;;;;;23.25;70.57;99551.34;10426210;28;20041;-59
2023/09/18 08:43:04;;;;;;;11.88;1.77;;;;;;;23.35;70.16;99546.63;10424854;28;20057;-60
2023/09/18 08:48:06;;;;;;;10.20;1.48;;;;;;;23.35;69.99;99543.91;10421141;28;20068;-60
2023/09/18 08:53:08;;;;;;;8.13;1.50;;;;;;;23.48;69.29;99544.38;10420464;28;20053;-60
2023/09/18 08:58:10;;;;;;;11.80;1.42;;;;;;;23.55;68.69;99542.16;10426907;28;20052;-61
2023/09/18 09:03:11;;;;;;;7.18;1.38;;;;;;;23.64;68.60;99534.19;10425117;28;20091;-60
2023/09/18 09:08:13;;;;;;;5.43;1.00;;;;;;;23.74;67.60;99512.16;10430052;28;20061;-60
2023/09/18 09:13:14;;;;;;;7.20;1.15;;;;;;;23.83;67.69;99502.22;10423156;28;20100;-60
2023/09/18 09:18:31;;;;;;;7.05;1.25;;;;;;;23.91;67.44;99507.16;10420285;28;20049;-59
2023/09/18 09:23:53;;;;;;;6.10;1.13;;;;;;;23.80;66.67;99515.72;10410827;28;20057;-59
2023/09/18 09:28:55;;;;;;;6.10;0.80;;;;;;;23.82;66.41;99532.75;10418366;28;20045;-60
2023/09/18 09:33:58;;;;;;;9.45;1.02;;;;;;;23.92;66.02;99541.72;10417145;28;20136;-59
2023/09/18 09:38:59;;;;;;;5.30;0.75;;;;;;;23.91;66.13;99531.84;10411532;28;20048;-59
2023/09/18 09:44:01;;;;;;;6.18;0.82;;;;;;;23.84;66.29;99538.75;10413070;28;20136;-59
2023/09/18 09:49:06;;;;;;;4.55;1.23;;;;;;;23.80;66.13;99563.22;10421276;28;20037;-59
2023/09/18 09:54:07;;;;;;;6.53;0.70;;;;;;;23.75;65.64;99565.94;10416014;28;20069;-59
2023/09/18 09:59:12;;;;;;;3.38;0.60;;;;;;;23.68;65.56;99549.78;10416345;28;20060;-59
2023/09/18 10:04:19;;;;;;;5.38;0.60;;;;;;;23.62;64.76;99566.53;10416883;28;20140;-58
2023/09/18 10:09:24;;;;;;;3.92;0.40;;;;;;;23.44;63.54;99582.56;10420571;28;20053;-59
2023/09/18 10:14:35;;;;;;;2.47;0.40;;;;;;;23.61;63.22;99562.19;10418210;28;20046;-58
2023/09/18 10:20:15;;;;;;;0.77;0.30;;;;;;;23.67;62.78;99583.81;10415642;28;20148;-59
2023/09/18 10:25:24;;;;;;;3.63;0.60;;;;;;;23.87;62.92;99588.41;10419636;28;20048;-59
2023/09/18 10:30:29;;;;;;;6.10;0.68;;;;;;;23.97;62.38;99593.00;10433786;28;20045;-60
2023/09/18 10:35:31;;;;;;;4.15;0.82;;;;;;;23.92;62.27;99590.31;10436404;28;20049;-61
2023/09/18 10:40:34;;;;;;;1.83;0.20;;;;;;;23.85;61.62;99574.13;10427366;28;20080;-59
2023/09/18 10:45:36;;;;;;;1.75;0.22;;;;;;;23.83;61.56;99581.03;10434051;28;20082;-60
2023/09/18 10:50:39;;;;;;;3.50;0.40;;;;;;;23.85;61.24;99578.81;10437575;28;20053;-60
2023/09/18 10:55:43;;;;;;;0.88;0.30;;;;;;;23.91;60.89;99559.31;10435010;28;20041;-58
2023/09/18 11:00:44;;;;;;;2.92;0.20;;;;;;;24.04;61.06;99589.97;10432811;28;20077;-58
2023/09/18 11:05:46;;;;;;;3.60;0.30;;;;;;;24.13;60.86;99577.25;10437142;28;20045;-58
2023/09/18 11:11:12;;;;;;;2.17;0.20;;;;;;;24.05;60.31;99578.72;10439895;28;20056;-58
2023/09/18 11:16:26;;;;;;;2.30;0.30;;;;;;;24.19;60.32;99592.63;10422672;28;20140;-60
2023/09/18 11:21:33;;;;;;;1.42;0.30;;;;;;;24.32;60.00;99594.72;10431557;28;20059;-59
2023/09/18 11:26:36;;;;;;;3.35;0.50;;;;;;;24.26;59.60;99612.34;10429898;28;20167;-60
2023/09/18 11:31:46;;;;;;;1.08;0.20;;;;;;;24.28;59.27;99603.81;10428495;28;20053;-59
2023/09/18 11:36:48;;;;;;;2.17;0.30;;;;;;;24.08;59.57;99607.53;10428397;28;20073;-60
2023/09/18 11:41:49;;;;;;;1.80;0.30;;;;;;;24.09;59.62;99620.13;10428272;28;20060;-58
2023/09/18 11:46:52;;;;;;;2.38;0.32;;;;;;;24.17;59.48;99610.47;10404418;28;20068;-58
2023/09/18 11:51:54;;;;;;;2.47;0.30;;;;;;;24.07;59.06;99589.38;10430083;28;20056;-59
2023/09/18 11:56:57;;;;;;;1.13;0.28;;;;;;;24.03;59.24;99589.16;10428806;28;20491;-58
2023/09/18 12:02:05;;;;;;;3.78;0.40;;;;;;;24.24;58.64;99591.75;10424808;28;20048;-60
2023/09/18 12:07:08;;;;;;;2.22;0.40;;;;;;;24.19;59.17;99592.63;10410327;28;20471;-60
2023/09/18 12:12:14;;;;;;;1.08;0.40;;;;;;;24.09;58.25;99585.28;10428457;28;20415;-58
2023/09/18 12:17:16;;;;;;;2.60;0.50;;;;;;;24.25;58.36;99599.72;10423469;28;20055;-58
2023/09/18 12:22:24;;;;;;;2.78;0.65;;;;;;;24.45;58.37;99584.19;10409914;28;20140;-59
2023/09/18 12:27:26;;;;;;;2.95;0.60;;;;;;;24.77;57.64;99583.66;10428186;28;20091;-60
2023/09/18 12:32:29;;;;;;;0.35;0.20;;;;;;;25.03;57.23;99578.72;10424318;28;20064;-59
2023/09/18 12:37:30;;;;;;;2.22;0.40;;;;;;;25.23;56.67;99568.63;10428097;28;20045;-60
2023/09/18 12:42:32;;;;;;;0.70;0.30;;;;;;;25.35;56.08;99579.22;10422731;28;20057;-60
2023/09/18 12:47:36;;;;;;;1.35;0.40;;;;;;;25.76;54.95;99563.00;10423836;28;20536;-59
2023/09/18 12:52:38;;;;;;;3.60;0.30;;;;;;;26.19;54.77;99565.72;10414133;28;20061;-59
2023/09/18 12:57:40;;;;;;;3.92;0.30;;;;;;;26.66;54.01;99569.41;10425235;28;20054;-58
2023/09/18 13:02:44;;;;;;;5.53;0.50;;;;;;;26.98;51.97;99567.72;10426547;28;20045;-58
2023/09/18 13:07:47;;;;;;;3.40;0.57;;;;;;;27.37;51.61;99571.97;10408941;28;20054;-59
2023/09/18 13:12:55;;;;;;;3.47;0.40;;;;;;;27.73;50.07;99571.19;10426017;28;20056;-58
2023/09/18 13:17:59;;;;;;;4.68;0.30;;;;;;;27.64;49.58;99564.75;10427920;28;20053;-60
2023/09/18 13:23:03;;;;;;;1.70;0.30;;;;;;;27.12;49.34;99569.69;10422305;28;20360;-63
2023/09/18 13:28:07;;;;;;;4.07;0.32;;;;;;;27.02;49.49;99560.47;10423015;28;20123;-63
2023/09/18 13:33:15;;;;;;;4.47;0.35;;;;;;;27.24;49.00;99559.78;10420473;28;20132;-65
2023/09/18 13:38:18;;;;;;;1.52;0.30;;;;;;;27.21;49.13;99554.03;10421313;28;20130;-63
2023/09/18 13:43:21;;;;;;;2.35;0.30;;;;;;;27.21;49.26;99554.88;10424354;28;20057;-62
2023/09/18 13:48:23;;;;;;;1.85;0.30;;;;;;;27.02;49.51;99565.16;10417558;28;20060;-65
2023/09/18 13:53:25;;;;;;;3.53;0.43;;;;;;;26.79;49.73;99565.03;10422090;28;20057;-63
2023/09/18 13:58:27;;;;;;;3.42;0.65;;;;;;;26.59;49.49;99565.38;10419613;28;20103;-63
2023/09/18 14:03:29;;;;;;;1.40;0.35;;;;;;;26.77;48.82;99566.44;10413401;28;20136;-62
2023/09/18 14:08:34;;;;;;;2.70;0.50;;;;;;;26.78;48.70;99554.28;10419673;28;20061;-63
2023/09/18 14:13:36;;;;;;;2.33;0.40;;;;;;;26.70;48.28;99548.38;10421395;28;20053;-63
2023/09/18 14:18:38;;;;;;;3.83;0.22;;;;;;;26.85;47.74;99540.94;10422198;28;20072;-64
2023/09/18 14:23:40;;;;;;;1.13;0.32;;;;;;;27.24;47.51;99515.63;10418242;28;20123;-64
2023/09/18 14:28:44;;;;;;;3.30;0.40;;;;;;;27.12;47.77;99508.97;10420488;28;20106;-64
2023/09/18 14:33:46;;;;;;;2.25;0.40;;;;;;;27.72;46.03;99497.75;10422284;28;20053;-59
2023/09/18 14:38:47;;;;;;;5.93;0.40;;;;;;;28.94;44.34;99495.81;10423373;28;20037;-60
2023/09/18 14:43:49;;;;;;;1.77;0.80;;;;;;;29.31;43.25;99493.69;10430974;28;20041;-61
2023/09/18 14:48:51;;;;;;;6.10;0.55;;;;;;;29.14;43.77;99485.31;10431704;28;20056;-60
2023/09/18 14:53:54;;;;;;;1.35;0.20;;;;;;;28.72;43.78;99498.66;10428708;28;20052;-61
2023/09/18 14:58:56;;;;;;;1.95;0.40;;;;;;;28.72;43.98;99485.63;10432618;28;20563;-61
2023/09/18 15:03:57;;;;;;;4.72;0.80;;;;;;;28.88;43.92;99484.06;10430399;28;20463;-61
2023/09/18 15:08:59;;;;;;;0.75;0.40;;;;;;;28.58;45.20;99480.19;10413036;28;20061;-62
2023/09/18 15:14:02;;;;;;;2.78;0.50;;;;;;;28.09;46.56;99479.22;10429851;28;20426;-61
2023/09/18 15:19:06;;;;;;;0.60;0.30;;;;;;;27.92;46.95;99457.00;10428606;28;20053;-61
2023/09/18 15:24:08;;;;;;;2.38;0.50;;;;;;;27.69;47.41;99445.91;10431202;28;20049;-61
2023/09/18 15:29:10;;;;;;;2.35;0.40;;;;;;;27.35;48.25;99440.88;10406872;28;20420;-61
2023/09/18 15:34:11;;;;;;;3.28;0.68;;;;;;;27.35;48.35;99449.16;10425454;28;20045;-62
2023/09/18 15:39:13;;;;;;;2.28;0.40;;;;;;;27.00;48.44;99451.56;10429677;28;20044;-61
2023/09/18 15:44:14;;;;;;;3.40;0.80;;;;;;;26.93;48.80;99440.91;10431676;28;20049;-59
2023/09/18 15:49:18;;;;;;;3.25;0.50;;;;;;;26.89;49.12;99443.47;10425106;28;20052;-58
2023/09/18 15:54:19;;;;;;;2.55;0.60;;;;;;;26.84;49.48;99440.03;10393580;28;20054;-59
2023/09/18 15:59:21;;;;;;;2.72;0.30;;;;;;;26.98;49.07;99442.78;10390296;28;20056;-59
2023/09/18 16:04:23;;;;;;;1.58;0.60;;;;;;;27.22;48.72;99448.84;10387359;28;20046;-58
2023/09/18 16:09:24;;;;;;;3.33;0.50;;;;;;;27.38;48.30;99443.84;10395395;28;20053;-59
2023/09/18 16:14:26;;;;;;;1.20;0.40;;;;;;;27.15;48.58;99448.44;10395246;28;20080;-59
2023/09/18 16:19:27;;;;;;;3.40;0.85;;;;;;;26.90;48.82;99439.59;10399119;28;20493;-60
2023/09/18 16:24:30;;;;;;;5.05;1.15;;;;;;;26.73;49.16;99436.63;10408688;28;20113;-59
2023/09/18 16:29:32;;;;;;;2.38;0.32;;;;;;;26.37;49.71;99439.25;10398944;28;20113;-59
2023/09/18 16:34:34;;;;;;;3.40;0.50;;;;;;;26.23;49.81;99433.69;10395295;28;20057;-59
2023/09/18 16:39:35;;;;;;;3.33;0.40;;;;;;;25.98;50.71;99433.00;10422296;28;20135;-58
2023/09/18 16:44:39;;;;;;;6.05;1.25;;;;;;;25.81;51.10;99446.47;10412909;28;20132;-59
2023/09/18 16:49:59;;;;;;;4.43;0.40;;;;;;;25.64;51.66;99447.84;10410612;28;20045;-58
2023/09/18 16:55:04;;;;;;;2.70;0.60;;;;;;;25.41;52.32;99440.47;10433280;28;20072;-61
2023/09/18 17:00:07;;;;;;;2.38;0.40;;;;;;;25.29;52.28;99436.22;10431360;28;20064;-60
2023/09/18 17:05:09;;;;;;;2.28;0.98;;;;;;;25.19;52.67;99436.34;10458252;28;20048;-61
2023/09/18 17:10:10;;;;;;;2.28;0.50;;;;;;;25.13;52.95;99437.50;10434995;28;20569;-60
2023/09/18 17:15:12;;;;;;;3.13;0.40;;;;;;;25.01;53.21;99439.88;10416597;28;20095;-60
2023/09/18 17:20:14;;;;;;;1.55;0.50;;;;;;;24.91;52.86;99427.06;10436783;28;20507;-60
2023/09/18 17:25:15;;;;;;;2.55;0.45;;;;;;;24.74;53.27;99428.38;10458276;28;20055;-60
2023/09/18 17:30:17;;;;;;;3.75;0.85;;;;;;;24.71;53.18;99417.97;10456252;28;20057;-60
2023/09/18 17:35:18;;;;;;;3.35;0.50;;;;;;;24.66;53.47;99434.50;10436719;28;20056;-60
2023/09/18 17:40:20;;;;;;;1.50;0.35;;;;;;;24.71;53.79;99442.69;10460067;28;20053;-60
2023/09/18 17:45:21;;;;;;;1.85;0.35;;;;;;;24.66;53.84;99441.94;10446314;28;20052;-60
2023/09/18 17:50:23;;;;;;;3.58;0.70;;;;;;;24.69;53.39;99444.13;10439380;28;20057;-58
2023/09/18 17:55:25;;;;;;;4.07;0.50;;;;;;;24.63;53.77;99439.78;10439553;28;20132;-58
2023/09/18 18:00:27;;;;;;;4.10;0.40;;;;;;;24.53;54.35;99435.22;10453563;28;20109;-59
2023/09/18 18:05:29;;;;;;;4.28;0.60;;;;;;;24.39;55.01;99445.19;10437699;28;20133;-58
2023/09/18 18:10:31;;;;;;;4.65;0.85;;;;;;;24.44;54.57;99447.91;10462249;28;20049;-58
2023/09/18 18:15:36;;;;;;;2.50;0.60;;;;;;;24.47;54.27;99448.16;10450197;28;20048;-59
2023/09/18 18:20:38;;;;;;;3.33;0.50;;;;;;;24.41;54.74;99453.97;10460290;28;20048;-59
2023/09/18 18:25:40;;;;;;;2.05;0.65;;;;;;;24.44;54.46;99439.66;10452654;28;20049;-59
2023/09/18 18:30:41;;;;;;;1.05;0.30;;;;;;;24.44;54.52;99447.91;10478368;28;20132;-59
2023/09/18 18:35:44;;;;;;;1.85;0.40;;;;;;;24.34;55.00;99440.59;10464987;28;20045;-59
2023/09/18 18:40:59;;;;;;;3.42;0.52;;;;;;;24.27;55.14;99464.81;10449774;28;20048;-59
2023/09/18 18:46:00;;;;;;;3.63;0.40;;;;;;;24.17;55.02;99449.28;10463045;28;20151;-58
2023/09/18 18:51:11;;;;;;;1.60;0.40;;;;;;;24.06;55.90;99454.03;10459587;28;20056;-60
2023/09/18 18:56:17;;;;;;;5.22;0.52;;;;;;;24.02;55.75;99454.91;10464547;28;20476;-58
2023/09/18 19:01:23;;;;;;;2.75;0.45;;;;;;;24.01;55.85;99469.72;10452703;28;20053;-60
2023/09/18 19:06:24;;;;;;;3.97;0.53;;;;;;;23.94;55.95;99481.84;10465898;28;20068;-59
2023/09/18 19:11:26;;;;;;;5.38;0.50;;;;;;;23.79;56.72;99472.91;10472445;28;20049;-59
2023/09/18 19:16:27;;;;;;;3.60;0.93;;;;;;;23.79;56.66;99490.19;10433941;28;20396;-59
2023/09/18 19:21:30;;;;;;;4.05;0.60;;;;;;;23.82;56.58;99478.66;10457790;28;20512;-59
2023/09/18 19:26:31;;;;;;;4.57;0.60;;;;;;;23.66;56.45;99488.06;10462241;28;20053;-60
2023/09/18 19:31:34;;;;;;;5.25;0.65;;;;;;;23.59;56.57;99490.28;10447117;28;20096;-58
2023/09/18 19:36:35;;;;;;;0.90;0.40;;;;;;;23.51;56.82;99492.53;10461090;28;20434;-59
2023/09/18 19:41:38;;;;;;;1.13;0.40;;;;;;;23.44;57.24;99507.66;10467112;28;20048;-59
2023/09/18 19:46:39;;;;;;;2.58;0.40;;;;;;;23.30;57.87;99510.19;10449197;28;20045;-59
2023/09/18 19:51:41;;;;;;;2.05;0.40;;;;;;;23.20;57.91;99518.47;10447080;28;20056;-60
2023/09/18 19:56:43;;;;;;;4.68;0.40;;;;;;;23.06;58.16;99520.97;10447513;28;20061;-60
2023/09/18 20:01:45;;;;;;;1.30;0.35;;;;;;;22.94;58.14;99535.78;10443969;28;20095;-59
2023/09/18 20:06:47;;;;;;;2.20;0.40;;;;;;;22.82;58.74;99559.91;10443364;28;20107;-59
2023/09/18 20:11:50;;;;;;;2.80;0.40;;;;;;;22.76;58.50;99552.81;10422321;28;20467;-60
2023/09/18 20:16:52;;;;;;;0.70;0.30;;;;;;;22.65;58.59;99573.09;10427304;28;20049;-59
2023/09/18 20:21:53;;;;;;;2.13;0.30;;;;;;;22.45;58.63;99573.94;10425876;28;20052;-58
2023/09/18 20:26:54;;;;;;;7.68;0.22;;;;;;;22.26;58.61;99582.69;10421359;28;20073;-59
2023/09/18 20:31:56;;;;;;;0.60;0.30;;;;;;;22.17;58.40;99595.22;10426781;28;20696;-59
2023/09/18 20:36:58;;;;;;;1.92;0.30;;;;;;;22.11;58.46;99621.78;10431471;28;20072;-59
2023/09/18 20:41:59;;;;;;;1.95;0.82;;;;;;;21.97;58.71;99615.97;10421993;28;20102;-59
2023/09/18 20:47:01;;;;;;;0.77;0.20;;;;;;;21.85;58.75;99615.41;10422299;28;20053;-58
2023/09/18 20:52:03;;;;;;;2.20;0.50;;;;;;;21.71;58.64;99627.97;10425545;28;20084;-57
2023/09/18 20:57:06;;;;;;;1.38;0.57;;;;;;;21.69;58.79;99641.06;10418271;28;20049;-58
2023/09/18 21:02:10;;;;;;;2.63;0.13;;;;;;;21.66;58.56;99639.69;10420644;28;20107;-58
2023/09/18 21:07:11;;;;;;;1.65;0.15;;;;;;;21.57;58.91;99633.91;10428366;28;20048;-59
2023/09/18 21:12:13;;;;;;;0.60;0.10;;;;;;;21.40;58.99;99630.50;10450851;28;20080;-57
2023/09/18 21:17:15;;;;;;;0.82;0.10;;;;;;;21.25;59.31;99619.47;10427046;28;20053;-59
2023/09/18 21:22:16;;;;;;;1.10;0.10;;;;;;;21.17;59.29;99629.84;10456396;28;20072;-58
2023/09/18 21:27:18;;;;;;;1.30;0.20;;;;;;;21.09;59.64;99643.16;10443517;28;20076;-59
2023/09/18 21:32:19;;;;;;;1.15;0.20;;;;;;;21.00;60.14;99640.91;10439601;28;20048;-57
2023/09/18 21:37:21;;;;;;;0.80;0.17;;;;;;;20.88;60.25;99637.56;10437735;28;20076;-56
2023/09/18 21:42:23;;;;;;;2.58;0.10;;;;;;;20.80;60.99;99638.03;10408811;28;20140;-56
2023/09/18 21:47:24;;;;;;;1.52;0.10;;;;;;;20.75;61.21;99655.22;10430977;28;20064;-57
2023/09/18 21:52:26;;;;;;;5.10;0.35;;;;;;;20.10;63.70;99645.25;10435299;28;20057;-57
2023/09/18 21:57:27;;;;;;;1.77;0.20;;;;;;;19.91;64.44;99667.44;10433417;28;20084;-58
2023/09/18 22:02:29;;;;;;;3.30;0.50;;;;;;;19.86;64.96;99670.09;10433493;28;20246;-57
2023/09/18 22:07:31;;;;;;;1.98;0.32;;;;;;;19.77;65.51;99669.72;10431924;28;20141;-58
2023/09/18 22:12:32;;;;;;;2.15;0.50;;;;;;;19.60;66.48;99669.72;10434740;28;20136;-57
2023/09/18 22:17:35;;;;;;;2.13;0.20;;;;;;;19.55;66.62;99669.69;10436018;28;20048;-56
2023/09/18 22:22:36;;;;;;;2.58;0.30;;;;;;;19.30;68.05;99647.53;10432091;28;20045;-57
2023/09/18 22:27:39;;;;;;;2.55;0.28;;;;;;;19.07;69.08;99667.59;10429486;28;20526;-57
2023/09/18 22:32:40;;;;;;;4.97;0.60;;;;;;;19.06;69.07;99666.78;10437582;28;20037;-57
2023/09/18 22:37:42;;;;;;;1.27;0.30;;;;;;;19.12;69.51;99668.50;10439203;28;20071;-56
2023/09/18 22:43:21;;;;;;;0.98;0.35;;;;;;;19.07;69.72;99673.88;10426687;28;20511;-59
2023/09/18 22:49:00;;;;;;;3.92;0.82;;;;;;;19.01;70.12;99670.25;10433527;28;20427;-60
2023/09/18 22:54:02;;;;;;;1.50;0.40;;;;;;;18.81;71.02;99678.91;10428426;28;20123;-60
2023/09/18 22:59:05;;;;;;;6.32;0.50;;;;;;;18.65;71.82;99685.16;10426120;28;20156;-60
2023/09/18 23:04:08;;;;;;;1.42;0.30;;;;;;;18.59;72.20;99686.13;10423402;28;20052;-59
2023/09/18 23:09:13;;;;;;;1.33;0.70;;;;;;;18.58;72.38;99693.47;10423691;28;20060;-59
2023/09/18 23:14:19;;;;;;;;;;;;;;;18.58;72.01;99698.06;10430571;28;20475;-59
2023/09/18 23:19:21;;;;;;;4.03;0.63;;;;;;;18.61;72.31;99695.69;10427757;28;20362;-60
2023/09/18 23:24:23;;;;;;;5.30;1.15;;;;;;;18.67;72.39;99696.63;10429582;28;20053;-59
2023/09/18 23:29:26;;;;;;;2.00;0.50;;;;;;;18.73;72.36;99694.81;10422913;28;20053;-59